Time;durP1;ratioP1;P1;durP2;ratioP2;P2;SDS_P1;SDS_P2;PMS_P1;PMS_P2;Temp;Humidity;BMP_temperature;BMP_pressure;BME280_temperature;BME280_humidity;BME280_pressure;Samples;Min_cycle;Max_cycle;Signal;HPM_P1;HPM_P2
2020/12/19 00:00:19;;;;;;;77.77;28.83;;;;;;;-0.52;79.17;99920.08;125282;1096;65233;-87
2020/12/19 00:02:59;;;;;;;82.40;27.70;;;;;;;-0.55;79.49;99913.99;125353;1096;65250;-87
2020/12/19 00:05:26;;;;;;;67.57;25.67;;;;;;;-0.48;79.36;99906.91;125323;1096;65141;-87
2020/12/19 00:07:52;;;;;;;68.23;28.53;;;;;;;-0.39;79.29;99913.77;125554;1095;67220;-87
2020/12/19 00:10:18;;;;;;;71.05;27.77;;;;;;;-0.36;79.91;99911.98;125530;1095;65310;-87
2020/12/19 00:12:48;;;;;;;71.02;28.52;;;;;;;-0.40;79.70;99902.41;125558;1095;65278;-87
2020/12/19 00:15:18;;;;;;;80.93;29.27;;;;;;;-0.43;78.86;99898.98;125295;1096;65185;-88
2020/12/19 00:17:44;;;;;;;61.80;25.07;;;;;;;-0.42;80.15;99901.58;125322;1096;65205;-88
2020/12/19 00:20:12;;;;;;;60.57;25.53;;;;;;;-0.40;80.03;99905.03;125513;1095;65130;-87
2020/12/19 00:22:38;;;;;;;73.30;29.40;;;;;;;-0.39;79.54;99900.65;125342;1097;65662;-86
2020/12/19 00:25:05;;;;;;;72.37;27.63;;;;;;;-0.49;79.17;99907.80;125527;1095;65172;-88
2020/12/19 00:27:31;;;;;;;69.30;27.67;;;;;;;-0.55;80.05;99900.88;125315;1096;65361;-87
2020/12/19 00:29:58;;;;;;;73.37;25.77;;;;;;;-0.56;79.50;99893.03;125294;1096;65201;-90
2020/12/19 00:32:24;;;;;;;57.87;24.27;;;;;;;-0.56;79.71;99898.28;125302;1096;65206;-86
2020/12/19 00:34:51;;;;;;;65.47;26.23;;;;;;;-0.55;80.22;99884.27;125537;1095;65600;-85
2020/12/19 00:37:17;;;;;;;53.70;24.63;;;;;;;-0.52;79.90;99889.45;125290;1096;65599;-87
2020/12/19 00:39:44;;;;;;;45.77;21.97;;;;;;;-0.43;80.31;99883.23;125555;1095;65182;-86
2020/12/19 00:42:10;;;;;;;51.07;22.57;;;;;;;-0.39;80.09;99883.14;125285;1096;65159;-88
2020/12/19 00:44:36;;;;;;;63.33;26.00;;;;;;;-0.39;80.04;99885.77;125291;1096;65099;-87
2020/12/19 00:47:03;;;;;;;62.00;25.10;;;;;;;-0.46;79.40;99883.27;125305;1095;65294;-86
2020/12/19 00:49:29;;;;;;;55.83;22.17;;;;;;;-0.53;79.07;99879.86;125535;1095;65355;-87
2020/12/19 00:51:56;;;;;;;60.90;22.47;;;;;;;-0.56;79.28;99878.16;125483;1095;65217;-91
2020/12/19 00:54:22;;;;;;;58.55;24.00;;;;;;;-0.55;80.48;99884.27;125558;1095;65246;-88
2020/12/19 00:56:52;;;;;;;58.65;25.35;;;;;;;-0.54;80.08;99875.50;125291;1096;65156;-88
2020/12/19 00:59:19;;;;;;;51.43;22.03;;;;;;;-0.52;80.05;99883.34;125525;1095;65083;-88
2020/12/19 01:01:46;;;;;;;66.37;29.03;;;;;;;-0.59;79.46;99883.43;125345;1096;65252;-88
2020/12/19 01:04:12;;;;;;;57.00;23.83;;;;;;;-0.66;79.66;99886.16;125309;1096;65253;-89
2020/12/19 01:06:40;;;;;;;59.57;24.23;;;;;;;-0.73;80.35;99885.38;125536;1095;65179;-87
2020/12/19 01:09:08;;;;;;;41.20;20.53;;;;;;;-0.72;79.79;99881.00;125489;1095;65128;-90
2020/12/19 01:11:37;;;;;;;36.30;17.03;;;;;;;-0.73;79.74;99879.27;125317;1095;65246;-88
2020/12/19 01:14:05;;;;;;;37.40;18.80;;;;;;;-0.72;79.28;99881.00;125543;1095;65246;-87
2020/12/19 01:16:32;;;;;;;42.50;18.83;;;;;;;-0.73;79.98;99868.78;125367;1096;65284;-86
2020/12/19 01:19:04;;;;;;;31.33;15.67;;;;;;;-0.68;80.37;99874.84;125269;1097;65086;-90
2020/12/19 01:21:31;;;;;;;34.07;17.07;;;;;;;-0.58;79.94;99868.55;125279;1097;65130;-87
2020/12/19 01:23:57;;;;;;;32.65;15.60;;;;;;;-0.49;79.72;99862.33;125294;1095;65262;-89
2020/12/19 01:26:24;;;;;;;37.90;16.47;;;;;;;-0.39;80.02;99862.15;125305;1096;65185;-88
2020/12/19 01:28:51;;;;;;;26.53;13.50;;;;;;;-0.24;79.96;99858.45;125393;1097;66785;-86
2020/12/19 01:31:20;;;;;;;28.25;13.10;;;;;;;-0.13;80.11;99853.88;125522;1095;65149;-89
2020/12/19 01:33:47;;;;;;;23.33;12.10;;;;;;;-0.02;80.82;99856.33;125574;1095;65230;-89
2020/12/19 01:36:20;;;;;;;26.07;12.93;;;;;;;0.05;79.73;99860.59;125276;1097;65165;-87
2020/12/19 01:38:46;;;;;;;25.03;12.87;;;;;;;0.13;80.84;99853.47;125531;1095;65258;-88
2020/12/19 01:41:13;;;;;;;24.97;13.10;;;;;;;0.19;80.55;99844.59;125545;1095;65133;-87
2020/12/19 01:43:44;;;;;;;31.40;14.30;;;;;;;0.20;80.00;99839.33;125274;1097;65234;-88
2020/12/19 01:46:12;;;;;;;23.37;12.37;;;;;;;0.22;80.47;99842.79;125579;1095;65187;-86
2020/12/19 01:48:39;;;;;;;24.13;12.17;;;;;;;0.28;80.07;99841.81;125271;1097;65329;-89
2020/12/19 01:51:05;;;;;;;24.35;12.65;;;;;;;0.36;80.40;99839.05;125306;1097;65201;-86
2020/12/19 01:53:32;;;;;;;24.05;11.55;;;;;;;0.41;80.44;99842.46;125292;1097;65604;-87
2020/12/19 01:55:59;;;;;;;23.40;10.93;;;;;;;0.46;80.40;99840.63;125313;1097;65302;-87
2020/12/19 01:58:26;;;;;;;21.10;9.80;;;;;;;0.49;80.18;99830.03;125506;1095;65143;-90
2020/12/19 02:00:56;;;;;;;20.53;11.07;;;;;;;0.50;79.98;99832.63;125292;1097;65240;-88
2020/12/19 02:03:23;;;;;;;23.23;11.90;;;;;;;0.50;79.77;99819.48;125316;1097;65245;-85
2020/12/19 02:05:52;;;;;;;23.45;12.85;;;;;;;0.50;79.96;99818.63;125466;1096;65173;-89
2020/12/19 02:08:19;;;;;;;23.70;12.33;;;;;;;0.49;80.08;99809.02;125363;1095;65182;-86
2020/12/19 02:10:45;;;;;;;19.90;9.40;;;;;;;0.51;80.82;99817.76;125294;1097;65173;-88
2020/12/19 02:13:12;;;;;;;19.67;10.13;;;;;;;0.56;80.02;99815.88;125294;1097;65241;-86
2020/12/19 02:15:45;;;;;;;15.33;8.33;;;;;;;0.62;80.73;99821.02;125298;1096;65265;-87
2020/12/19 02:18:12;;;;;;;19.60;8.10;;;;;;;0.65;80.36;99814.86;125293;1097;65178;-86
2020/12/19 02:20:39;;;;;;;16.43;9.27;;;;;;;0.65;79.77;99813.09;125328;1096;65145;-90
2020/12/19 02:23:07;;;;;;;15.87;9.80;;;;;;;0.63;79.81;99806.97;125539;1095;65217;-87
2020/12/19 02:25:36;;;;;;;21.17;10.63;;;;;;;0.62;80.30;99804.38;125283;1095;65250;-86
2020/12/19 02:28:05;;;;;;;17.20;9.70;;;;;;;0.58;80.12;99808.86;125338;1097;65168;-87
2020/12/19 02:30:39;;;;;;;17.30;10.47;;;;;;;0.54;80.21;99804.55;125601;1095;65153;-87
2020/12/19 02:33:05;;;;;;;16.95;10.70;;;;;;;0.47;80.11;99805.56;125354;1097;65313;-87
2020/12/19 02:35:32;;;;;;;16.60;9.90;;;;;;;0.41;79.67;99797.80;125305;1097;65214;-89
2020/12/19 02:38:02;;;;;;;17.07;10.37;;;;;;;0.35;80.15;99796.14;125271;1095;65265;-87
2020/12/19 02:40:29;;;;;;;14.80;10.50;;;;;;;0.30;80.29;99787.48;125499;1095;65248;-89
2020/12/19 02:42:55;;;;;;;16.10;9.60;;;;;;;0.29;80.48;99785.75;125350;1097;65198;-89
2020/12/19 02:45:21;;;;;;;16.30;10.50;;;;;;;0.28;80.41;99794.53;125533;1097;65302;-87
2020/12/19 02:47:48;;;;;;;20.70;10.50;;;;;;;0.30;79.99;99783.98;125331;1097;65128;-84
2020/12/19 02:50:14;;;;;;;16.67;10.18;;;;;;;0.33;80.74;99789.20;125554;1095;65320;-86
2020/12/19 02:52:41;;;;;;;20.90;10.23;;;;;;;0.30;80.34;99782.22;125328;1095;65265;-86
2020/12/19 02:55:07;;;;;;;20.97;10.63;;;;;;;0.32;80.58;99787.44;125269;1097;65250;-86
2020/12/19 02:57:33;;;;;;;17.83;10.37;;;;;;;0.33;80.70;99781.31;125303;1095;65133;-85
2020/12/19 03:00:00;;;;;;;17.00;9.63;;;;;;;0.30;79.92;99784.84;125480;1095;65488;-88
2020/12/19 03:02:26;;;;;;;14.03;8.97;;;;;;;0.32;80.34;99780.45;125500;1095;65223;-84
2020/12/19 03:04:52;;;;;;;15.23;8.33;;;;;;;0.36;80.73;99781.24;125523;1095;65158;-87
2020/12/19 03:07:19;;;;;;;13.13;7.70;;;;;;;0.37;80.18;99780.34;125274;1097;65200;-87
2020/12/19 03:09:45;;;;;;;12.50;7.83;;;;;;;0.36;80.09;99782.11;125296;1097;65153;-89
2020/12/19 03:12:12;;;;;;;13.32;7.22;;;;;;;0.34;80.74;99777.79;125349;1095;65192;-86
2020/12/19 03:14:38;;;;;;;19.20;10.85;;;;;;;0.28;80.02;99781.39;125316;1097;65159;-90
2020/12/19 03:17:04;;;;;;;20.80;11.13;;;;;;;0.21;80.14;99774.53;125350;1095;65242;-86
2020/12/19 03:19:30;;;;;;;16.67;10.27;;;;;;;0.18;80.05;99777.20;125250;1097;65258;-88
2020/12/19 03:21:57;;;;;;;14.68;7.85;;;;;;;0.17;80.70;99771.08;125359;1097;65147;-89
2020/12/19 03:24:23;;;;;;;14.47;8.80;;;;;;;0.15;80.04;99762.38;125312;1096;65271;-87
2020/12/19 03:26:50;;;;;;;11.73;7.17;;;;;;;0.15;81.05;99762.38;125336;1096;65144;-87
2020/12/19 03:29:16;;;;;;;12.93;7.47;;;;;;;0.15;81.01;99766.77;125329;1096;65207;-86
2020/12/19 03:31:43;;;;;;;13.00;8.57;;;;;;;0.13;80.51;99758.05;125538;1095;65201;-87
2020/12/19 03:34:09;;;;;;;16.20;9.38;;;;;;;0.13;80.38;99768.56;125309;1095;65258;-86
2020/12/19 03:36:35;;;;;;;16.80;9.60;;;;;;;0.16;80.60;99766.72;125274;1095;65175;-87
2020/12/19 03:39:03;;;;;;;13.20;8.40;;;;;;;0.16;80.72;99766.72;125322;1096;65275;-86
2020/12/19 03:41:29;;;;;;;11.47;7.90;;;;;;;0.17;80.14;99765.82;125363;1095;65166;-86
2020/12/19 03:43:56;;;;;;;10.67;6.73;;;;;;;0.22;80.81;99763.98;125506;1095;65222;-87
2020/12/19 03:46:22;;;;;;;10.73;6.40;;;;;;;0.28;80.33;99765.63;125545;1095;65179;-88
2020/12/19 03:48:48;;;;;;;12.95;7.05;;;;;;;0.31;80.34;99767.32;125282;1097;66354;-86
2020/12/19 03:51:15;;;;;;;9.55;6.90;;;;;;;0.31;80.74;99767.32;125553;1095;65185;-88
2020/12/19 03:53:41;;;;;;;13.07;8.33;;;;;;;0.29;80.67;99763.87;125301;1096;65172;-87
2020/12/19 03:56:08;;;;;;;15.05;8.75;;;;;;;0.26;80.74;99763.04;125288;1097;65601;-89
2020/12/19 03:58:34;;;;;;;15.65;9.58;;;;;;;0.26;80.82;99760.41;125332;1095;65160;-86
2020/12/19 04:01:00;;;;;;;12.00;7.67;;;;;;;0.26;80.56;99757.79;125248;1097;65137;-86
2020/12/19 04:03:27;;;;;;;10.40;6.97;;;;;;;0.26;80.63;99755.16;125308;1095;65229;-89
2020/12/19 04:05:53;;;;;;;12.50;7.53;;;;;;;0.28;80.19;99744.62;125328;1096;65165;-85
2020/12/19 04:08:20;;;;;;;12.10;7.05;;;;;;;0.31;81.16;99748.93;125504;1095;65156;-85
2020/12/19 04:10:46;;;;;;;8.45;6.50;;;;;;;0.30;80.53;99745.44;125474;1095;65228;-88
2020/12/19 04:13:12;;;;;;;11.38;7.62;;;;;;;0.29;80.78;99748.11;125524;1095;65252;-86
2020/12/19 04:15:39;;;;;;;14.40;7.63;;;;;;;0.35;81.18;99748.84;125544;1095;65230;-85
2020/12/19 04:18:05;;;;;;;13.70;8.23;;;;;;;0.40;80.76;99748.77;125517;1096;65265;-88
2020/12/19 04:20:32;;;;;;;16.43;8.90;;;;;;;0.41;80.53;99747.87;125357;1096;65248;-87
2020/12/19 04:22:58;;;;;;;15.43;9.47;;;;;;;0.38;80.69;99745.28;125271;1096;65268;-88
2020/12/19 04:25:26;;;;;;;18.20;9.17;;;;;;;0.34;80.85;99741.01;125505;1095;65146;-87
2020/12/19 04:27:54;;;;;;;19.00;9.20;;;;;;;0.35;80.37;99738.34;125172;1096;65213;-86
2020/12/19 04:30:21;;;;;;;25.20;10.03;;;;;;;0.38;80.57;99734.77;125250;1095;65130;-84
2020/12/19 04:32:47;;;;;;;19.30;7.90;;;;;;;0.40;80.40;99740.89;125344;1096;65121;-87
2020/12/19 04:35:14;;;;;;;16.87;8.18;;;;;;;0.43;81.06;99735.55;125314;1097;65127;-87
2020/12/19 04:37:40;;;;;;;24.65;11.10;;;;;;;0.42;81.17;99744.34;125256;1096;65153;-86
2020/12/19 04:40:06;;;;;;;21.10;10.40;;;;;;;0.38;80.95;99743.55;125530;1095;65243;-88
2020/12/19 04:42:35;;;;;;;23.63;10.70;;;;;;;0.34;80.39;99747.13;125523;1095;65130;-85
2020/12/19 04:45:04;;;;;;;16.87;10.13;;;;;;;0.30;80.68;99742.81;125583;1095;65192;-86
2020/12/19 04:47:31;;;;;;;15.63;8.00;;;;;;;0.29;81.01;99746.34;125592;1095;65178;-87
2020/12/19 04:49:59;;;;;;;12.57;7.00;;;;;;;0.30;81.32;99734.94;125305;1096;65283;-86
2020/12/19 04:52:27;;;;;;;13.57;7.07;;;;;;;0.32;80.83;99743.67;125291;1095;65214;-87
2020/12/19 04:54:54;;;;;;;10.53;6.50;;;;;;;0.32;80.92;99738.42;125546;1095;65163;-85
2020/12/19 04:57:20;;;;;;;16.50;8.57;;;;;;;0.29;80.61;99737.59;125514;1096;65156;-87
2020/12/19 04:59:48;;;;;;;17.57;9.33;;;;;;;0.25;80.71;99736.78;125271;1095;65167;-89
2020/12/19 05:02:14;;;;;;;14.60;7.90;;;;;;;0.23;81.05;99739.44;125279;1097;65294;-88
2020/12/19 05:04:43;;;;;;;12.07;7.77;;;;;;;0.27;81.08;99737.64;125287;1095;65150;-87
2020/12/19 05:07:13;;;;;;;12.80;7.90;;;;;;;0.26;81.15;99744.66;125316;1097;65255;-88
2020/12/19 05:09:42;;;;;;;14.73;7.67;;;;;;;0.29;81.09;99733.20;125496;1095;65559;-87
2020/12/19 05:12:11;;;;;;;13.10;7.67;;;;;;;0.30;80.58;99742.81;125601;1095;65176;-90
2020/12/19 05:14:38;;;;;;;16.70;7.75;;;;;;;0.30;81.27;99740.19;125300;1095;65268;-89
2020/12/19 05:17:04;;;;;;;20.43;10.80;;;;;;;0.28;80.67;99736.73;125300;1095;65582;-87
2020/12/19 05:19:32;;;;;;;20.43;10.70;;;;;;;0.28;81.46;99741.13;125489;1095;65265;-87
2020/12/19 05:21:58;;;;;;;25.13;12.10;;;;;;;0.24;80.63;99746.42;125530;1095;65090;-85
2020/12/19 05:24:34;;;;;;;24.27;13.63;;;;;;;0.20;81.32;99736.89;125304;1096;65287;-85
2020/12/19 05:27:09;;;;;;;22.97;12.17;;;;;;;0.15;80.87;99741.36;125271;1095;65311;-85
2020/12/19 05:29:36;;;;;;;20.10;11.70;;;;;;;0.11;81.04;99742.30;125524;1095;65536;-86
2020/12/19 05:32:04;;;;;;;16.27;11.37;;;;;;;0.08;80.26;99742.37;125556;1095;65156;-86
2020/12/19 05:34:31;;;;;;;17.43;11.40;;;;;;;0.07;80.80;99742.41;125337;1096;65176;-85
2020/12/19 05:36:58;;;;;;;19.90;11.40;;;;;;;0.07;80.91;99751.16;125213;1095;65182;-89
2020/12/19 05:39:25;;;;;;;23.15;11.80;;;;;;;0.05;81.29;99747.66;125532;1095;65271;-85
2020/12/19 05:41:51;;;;;;;22.90;13.20;;;;;;;0.02;81.14;99754.75;125299;1095;65265;-86
2020/12/19 05:44:22;;;;;;;26.95;13.55;;;;;;;-0.05;81.08;99752.23;125286;1096;65237;-86
2020/12/19 05:46:50;;;;;;;29.27;14.20;;;;;;;-0.07;81.51;99747.89;125384;1097;65334;-89
2020/12/19 05:49:16;;;;;;;29.40;14.30;;;;;;;-0.09;80.64;99754.94;125544;1095;65144;-89
2020/12/19 05:51:44;;;;;;;28.13;14.50;;;;;;;-0.09;81.18;99752.31;125543;1095;65317;-86
2020/12/19 05:54:13;;;;;;;24.60;13.77;;;;;;;-0.09;80.49;99754.94;125271;1095;65159;-86
2020/12/19 05:56:41;;;;;;;32.10;16.33;;;;;;;-0.07;81.37;99756.63;125304;1097;65274;-89
2020/12/19 05:59:16;;;;;;;34.13;17.10;;;;;;;-0.07;81.11;99750.52;125540;1095;65137;-85
2020/12/19 06:01:43;;;;;;;;;;;;;;;-0.09;80.88;99754.94;125640;1095;65191;-85
2020/12/19 06:04:14;;;;;;;36.70;15.87;;;;;;;-0.13;81.13;99751.48;125481;1096;65269;-87
2020/12/19 06:06:42;;;;;;;33.33;13.93;;;;;;;-0.11;81.05;99759.36;125335;1095;65178;-89
2020/12/19 06:09:10;;;;;;;36.33;14.30;;;;;;;-0.10;81.04;99755.83;125363;1096;65219;-85
2020/12/19 06:12:06;;;;;;;42.80;20.25;;;;;;;-0.09;81.32;99753.17;125588;1095;65182;-87
2020/12/19 06:14:40;;;;;;;27.93;14.97;;;;;;;-0.08;81.40;99747.02;125272;1095;65236;-85
2020/12/19 06:17:28;;;;;;;57.33;29.87;;;;;;;-0.09;80.36;99747.05;125221;1095;65242;-87
2020/12/19 06:19:56;;;;;;;64.60;30.27;;;;;;;-0.11;80.88;99747.09;125293;1095;65461;-86
2020/12/19 06:22:29;;;;;;;34.77;18.10;;;;;;;-0.11;81.26;99754.97;125314;1096;65176;-84
2020/12/19 06:24:56;;;;;;;31.10;17.40;;;;;;;-0.11;81.34;99754.11;125350;1097;65255;-87
2020/12/19 06:27:23;;;;;;;30.90;17.30;;;;;;;-0.09;81.76;99752.31;125266;1095;65226;-84
2020/12/19 06:29:51;;;;;;;26.60;14.63;;;;;;;-0.07;80.99;99756.63;125253;1095;65438;-85
2020/12/19 06:32:25;;;;;;;22.13;11.27;;;;;;;-0.04;81.58;99755.72;125584;1096;65141;-83
2020/12/19 06:35:07;;;;;;;17.37;10.88;;;;;;;0.01;81.53;99753.02;125338;1096;65252;-85
2020/12/19 06:37:36;;;;;;;18.50;9.93;;;;;;;0.04;80.98;99756.44;125315;1097;65216;-85
2020/12/19 06:40:06;;;;;;;20.73;11.20;;;;;;;0.03;81.31;99757.34;125310;1095;65156;-85
2020/12/19 06:42:32;;;;;;;24.97;11.40;;;;;;;0.04;81.41;99760.83;125305;1095;65189;-84
2020/12/19 06:45:22;;;;;;;20.47;11.40;;;;;;;0.01;81.27;99753.89;125307;1095;65153;-88
2020/12/19 06:47:49;;;;;;;25.47;12.67;;;;;;;0.03;81.74;99759.97;125566;1095;65136;-87
2020/12/19 06:50:17;;;;;;;26.87;12.97;;;;;;;0.06;80.72;99746.77;125297;1096;65156;-88
2020/12/19 06:52:59;;;;;;;30.13;14.33;;;;;;;0.09;81.50;99758.99;125504;1095;65163;-86
2020/12/19 06:55:29;;;;;;;34.17;17.10;;;;;;;0.15;81.55;99753.62;125369;1097;65234;-84
2020/12/19 06:57:57;;;;;;;36.00;16.30;;;;;;;0.21;81.41;99750.89;125586;1095;65137;-87
2020/12/19 07:00:28;;;;;;;32.87;15.33;;;;;;;0.25;81.33;99757.80;125353;1096;65130;-87
2020/12/19 07:03:00;;;;;;;34.27;15.27;;;;;;;0.28;81.66;99752.50;125264;1095;65133;-85
2020/12/19 07:05:36;;;;;;;29.35;13.05;;;;;;;0.30;81.33;99755.09;125496;1095;65223;-85
2020/12/19 07:08:23;;;;;;;24.73;12.10;;;;;;;0.36;81.82;99754.97;125492;1095;65252;-84
2020/12/19 07:10:51;;;;;;;21.07;11.10;;;;;;;0.42;81.07;99757.48;125531;1095;65137;-92
2020/12/19 07:13:17;;;;;;;15.70;10.00;;;;;;;0.48;81.08;99755.59;125564;1095;65141;-88
2020/12/19 07:15:49;;;;;;;16.85;9.25;;;;;;;0.54;81.50;99760.73;125293;1096;65134;-86
2020/12/19 07:18:32;;;;;;;13.10;7.70;;;;;;;0.62;81.04;99763.19;125263;1097;65198;-89
2020/12/19 07:21:10;;;;;;;16.50;9.25;;;;;;;0.70;81.54;99756.04;125269;1096;65290;-85
2020/12/19 07:23:40;;;;;;;19.25;11.00;;;;;;;0.78;81.46;99761.98;125310;1095;65332;-85
2020/12/19 07:26:07;;;;;;;20.23;10.93;;;;;;;0.86;81.66;99761.82;125500;1095;65175;-86
2020/12/19 07:28:33;;;;;;;23.20;11.60;;;;;;;0.92;81.36;99760.83;125266;1097;65251;-87
2020/12/19 07:31:00;;;;;;;18.10;9.67;;;;;;;0.94;80.94;99759.02;125332;1095;65230;-88
2020/12/19 07:33:27;;;;;;;17.93;9.80;;;;;;;0.98;81.05;99763.33;125230;1096;65226;-86
2020/12/19 07:35:56;;;;;;;15.13;8.50;;;;;;;1.04;81.15;99760.56;125298;1096;65131;-86
2020/12/19 07:38:23;;;;;;;15.00;8.40;;;;;;;1.09;80.79;99763.96;125359;1097;65255;-84
2020/12/19 07:40:58;;;;;;;12.27;7.97;;;;;;;1.16;81.28;99764.69;125370;1096;65112;-85
2020/12/19 07:43:24;;;;;;;13.73;8.77;;;;;;;1.24;81.28;99766.23;125518;1095;65160;-83
2020/12/19 07:45:58;;;;;;;10.93;6.93;;;;;;;1.29;81.17;99760.88;125246;1096;65328;-83
2020/12/19 07:48:25;;;;;;;13.03;8.03;;;;;;;1.35;81.21;99766.86;125220;1095;65208;-84
2020/12/19 07:50:51;;;;;;;13.27;8.50;;;;;;;1.39;81.05;99765.00;125310;1096;65176;-84
2020/12/19 07:53:18;;;;;;;14.70;8.93;;;;;;;1.43;81.21;99760.54;125561;1095;65112;-83
2020/12/19 07:55:50;;;;;;;14.10;8.87;;;;;;;1.48;81.07;99763.94;125252;1097;65178;-83
2020/12/19 07:58:19;;;;;;;23.60;12.57;;;;;;;1.53;81.04;99775.23;125302;1096;65188;-84
2020/12/19 08:00:45;;;;;;;20.03;11.40;;;;;;;1.57;81.03;99766.34;125340;1096;65278;-82
2020/12/19 08:03:12;;;;;;;22.17;11.23;;;;;;;1.62;81.01;99767.09;125633;1095;65137;-85
2020/12/19 08:05:38;;;;;;;23.30;12.47;;;;;;;1.68;81.00;99769.58;125727;1095;65102;-86
2020/12/19 08:08:05;;;;;;;21.17;11.97;;;;;;;1.75;80.84;99767.66;125331;1096;65156;-85
2020/12/19 08:10:31;;;;;;;18.17;11.47;;;;;;;1.80;80.78;99763.14;125723;1095;65329;-84
2020/12/19 08:13:00;;;;;;;17.90;10.67;;;;;;;1.84;80.81;99768.27;125296;1096;65198;-85
2020/12/19 08:15:27;;;;;;;19.00;10.90;;;;;;;1.89;80.85;99770.80;125476;1095;65207;-85
2020/12/19 08:18:04;;;;;;;18.23;10.83;;;;;;;1.92;81.09;99762.84;125583;1095;65329;-84
2020/12/19 08:20:35;;;;;;;17.67;10.00;;;;;;;1.98;80.78;99774.98;125473;1095;65080;-89
2020/12/19 08:23:05;;;;;;;17.70;9.10;;;;;;;2.04;80.80;99769.56;125476;1096;65150;-85
2020/12/19 08:25:32;;;;;;;15.50;9.33;;;;;;;2.11;80.75;99771.13;125438;1096;65272;-80
2020/12/19 08:27:59;;;;;;;16.63;9.67;;;;;;;2.19;80.54;99768.28;125274;1096;65194;-84
2020/12/19 08:30:32;;;;;;;13.57;7.60;;;;;;;2.23;80.43;99773.44;125276;1095;65242;-83
2020/12/19 08:33:07;;;;;;;16.15;9.80;;;;;;;2.26;80.61;99762.80;125527;1095;65133;-83
2020/12/19 08:35:43;;;;;;;12.30;7.00;;;;;;;2.30;80.77;99767.09;125491;1095;65281;-84
2020/12/19 08:38:16;;;;;;;14.30;8.37;;;;;;;2.34;80.33;99771.35;125296;1096;65194;-82
2020/12/19 08:40:45;;;;;;;19.75;10.25;;;;;;;2.38;80.60;99770.38;125290;1095;65127;-80
2020/12/19 08:43:14;;;;;;;15.63;8.93;;;;;;;2.46;80.49;99767.52;125579;1095;65242;-83
2020/12/19 08:45:45;;;;;;;14.90;8.43;;;;;;;2.54;80.67;99783.12;125416;1096;65575;-82
2020/12/19 08:48:17;;;;;;;13.25;7.70;;;;;;;2.62;80.74;99781.16;127379;1090;65290;-80
2020/12/19 08:50:45;;;;;;;16.73;8.80;;;;;;;2.70;80.69;99781.80;125585;1095;65162;-83
2020/12/19 08:53:16;;;;;;;11.80;7.05;;;;;;;2.77;80.57;99785.98;125427;1096;65162;-82
2020/12/19 08:55:43;;;;;;;14.40;8.90;;;;;;;2.82;80.45;99785.86;125302;1097;65308;-82
2020/12/19 08:58:24;;;;;;;15.83;9.70;;;;;;;2.86;79.80;99779.56;125544;1095;65191;-86
2020/12/19 09:00:52;;;;;;;15.20;8.93;;;;;;;2.92;80.26;99774.97;125248;1096;65598;-83
2020/12/19 09:03:30;;;;;;;10.23;6.70;;;;;;;3.01;80.31;99773.00;125619;1096;65140;-81
2020/12/19 09:06:10;;;;;;;10.60;7.83;;;;;;;3.05;80.22;99778.11;125261;1097;65252;-83
2020/12/19 09:08:42;;;;;;;11.73;7.33;;;;;;;3.13;80.47;99775.27;126052;1095;65102;-80
2020/12/19 09:11:21;;;;;;;11.70;8.40;;;;;;;3.18;80.30;99776.86;125368;1095;65133;-82
2020/12/19 09:13:48;;;;;;;13.40;8.40;;;;;;;3.19;79.96;99770.66;125274;1096;65600;-84
2020/12/19 09:16:14;;;;;;;12.07;8.60;;;;;;;3.22;79.75;99773.20;125564;1095;65713;-83
2020/12/19 09:18:41;;;;;;;14.30;8.07;;;;;;;3.28;79.96;99771.28;125242;1097;65108;-87
2020/12/19 09:21:10;;;;;;;12.13;7.77;;;;;;;3.33;80.08;99758.81;125506;1095;65332;-86
2020/12/19 09:23:37;;;;;;;15.97;9.10;;;;;;;3.41;80.05;99767.34;125286;1096;65205;-81
2020/12/19 09:26:06;;;;;;;14.67;7.50;;;;;;;3.48;80.19;99753.89;125319;1097;65131;-84
2020/12/19 09:28:33;;;;;;;13.40;8.25;;;;;;;3.56;79.79;99750.14;125317;1096;65265;-85
2020/12/19 09:31:00;;;;;;;17.57;9.57;;;;;;;3.59;80.29;99744.77;125516;1095;65152;-83
2020/12/19 09:33:26;;;;;;;16.33;8.17;;;;;;;3.68;80.20;99742.67;125252;1096;65230;-82
2020/12/19 09:35:53;;;;;;;15.67;8.40;;;;;;;3.77;79.57;99734.46;125558;1095;65233;-83
2020/12/19 09:38:21;;;;;;;17.43;9.03;;;;;;;3.85;79.51;99746.55;125288;1096;65156;-80
2020/12/19 09:40:48;;;;;;;10.20;6.63;;;;;;;3.89;79.52;99748.19;125356;1096;65246;-86
2020/12/19 09:43:15;;;;;;;11.97;7.23;;;;;;;3.87;79.57;99745.56;125289;1096;65143;-85
2020/12/19 09:45:41;;;;;;;10.10;6.43;;;;;;;3.93;79.18;99753.29;125308;1096;65240;-86
2020/12/19 09:48:08;;;;;;;11.43;7.30;;;;;;;3.98;80.27;99755.78;125302;1097;65162;-83
2020/12/19 09:50:35;;;;;;;9.80;6.77;;;;;;;4.05;80.00;99737.02;125281;1096;65252;-81
2020/12/19 09:53:04;;;;;;;10.57;6.63;;;;;;;4.11;79.31;99740.37;125371;1096;65278;-81
2020/12/19 09:55:32;;;;;;;10.37;6.47;;;;;;;4.21;79.27;99742.64;125349;1095;65153;-83
2020/12/19 09:57:59;;;;;;;9.63;6.17;;;;;;;4.31;79.35;99730.80;125445;1090;65175;-80
2020/12/19 10:00:26;;;;;;;9.33;5.97;;;;;;;4.37;79.43;99732.37;125357;1095;65165;-84
2020/12/19 10:02:54;;;;;;;11.37;7.50;;;;;;;4.38;79.11;99731.45;125218;1096;65275;-81
2020/12/19 10:05:21;;;;;;;15.23;8.23;;;;;;;4.43;79.43;99726.00;125536;1095;65162;-78
2020/12/19 10:07:48;;;;;;;13.87;8.37;;;;;;;4.49;79.42;99726.64;125291;1095;65225;-86
2020/12/19 10:10:14;;;;;;;12.33;7.67;;;;;;;4.54;79.09;99724.69;125520;1095;65141;-84
2020/12/19 10:12:41;;;;;;;15.13;7.47;;;;;;;4.56;79.42;99725.49;125398;1096;65198;-81
2020/12/19 10:15:08;;;;;;;11.60;6.83;;;;;;;4.57;78.81;99721.06;125361;1097;65310;-84
2020/12/19 10:17:35;;;;;;;15.13;8.63;;;;;;;4.59;78.58;99719.24;125267;1096;65275;-82
2020/12/19 10:20:03;;;;;;;10.87;6.67;;;;;;;4.61;78.33;99715.61;125277;1097;65220;-82
2020/12/19 10:22:29;;;;;;;14.50;8.33;;;;;;;4.68;79.54;99720.67;125242;1095;65160;-86
2020/12/19 10:24:56;;;;;;;11.65;7.50;;;;;;;4.71;78.93;99718.78;125304;1095;65309;-81
2020/12/19 10:27:22;;;;;;;11.83;6.97;;;;;;;4.75;78.55;99719.52;125249;1096;65438;-82
2020/12/19 10:29:49;;;;;;;13.07;7.03;;;;;;;4.69;78.76;99719.75;125521;1096;65141;-81
2020/12/19 10:32:16;;;;;;;12.67;6.73;;;;;;;4.67;78.44;99717.16;125664;1095;65297;-83
2020/12/19 10:34:43;;;;;;;10.57;6.87;;;;;;;4.69;79.08;99715.31;125506;1095;65207;-82
2020/12/19 10:37:09;;;;;;;10.00;6.80;;;;;;;4.73;78.75;99713.43;125270;1096;65133;-82
2020/12/19 10:39:36;;;;;;;10.33;7.40;;;;;;;4.79;79.14;99710.55;125533;1095;65189;-83
2020/12/19 10:42:03;;;;;;;12.77;7.97;;;;;;;4.88;78.47;99703.11;125323;1097;65159;-81
2020/12/19 10:44:29;;;;;;;13.33;8.03;;;;;;;4.95;79.07;99708.16;125279;1095;65240;-86
2020/12/19 10:46:59;;;;;;;15.93;8.40;;;;;;;4.98;79.04;99710.71;125516;1096;65249;-82
2020/12/19 10:49:26;;;;;;;9.55;6.95;;;;;;;5.02;77.85;99704.35;125871;1095;65153;-83
2020/12/19 10:51:53;;;;;;;9.85;6.15;;;;;;;4.99;78.70;99701.84;125286;1095;65314;-80
2020/12/19 10:54:19;;;;;;;10.53;6.70;;;;;;;5.01;78.54;99706.14;125447;1095;65115;-86
2020/12/19 10:56:46;;;;;;;13.50;6.67;;;;;;;5.05;78.86;99702.46;125200;1097;65197;-85
2020/12/19 10:59:12;;;;;;;9.40;5.80;;;;;;;5.07;78.17;99705.05;125203;1097;65125;-82
2020/12/19 11:01:39;;;;;;;11.20;6.57;;;;;;;5.02;77.90;99694.63;125430;1097;65101;-87
2020/12/19 11:04:05;;;;;;;9.47;6.57;;;;;;;5.02;78.66;99702.56;125624;1095;65278;-89
2020/12/19 11:06:32;;;;;;;13.50;7.60;;;;;;;5.02;77.95;99694.63;125862;1095;65266;-93
2020/12/19 11:08:59;;;;;;;15.93;8.37;;;;;;;5.04;78.13;99694.59;125637;1095;65150;-92
2020/12/19 11:11:26;;;;;;;12.33;7.63;;;;;;;5.07;78.28;99684.72;125586;1095;65244;-84
2020/12/19 11:13:52;;;;;;;9.57;6.57;;;;;;;5.12;78.07;99676.61;125313;1097;65249;-89
2020/12/19 11:16:29;;;;;;;10.70;7.23;;;;;;;5.12;77.89;99682.77;125289;1097;65246;-88
2020/12/19 11:18:57;;;;;;;15.10;8.03;;;;;;;5.13;78.34;99673.89;125616;1095;65162;-90
2020/12/19 11:21:24;;;;;;;12.50;7.05;;;;;;;5.12;78.43;99681.91;125291;1095;65226;-89
2020/12/19 11:23:51;;;;;;;12.40;7.67;;;;;;;5.13;78.33;99678.33;125682;1095;65149;-90